HRYR/KGL METAR and TAF weather

Enter ICAO airport designator
Station Type Date Time Source
HRYR METAR 2020/07/12 06:30 UTC NOAA

HRYR 120630Z VRB02KT 9999 FEW026 22/14 Q1023 NOSIG


Station Type Date Time Source
HRYR Decoded METAR 2020/07/12 06:30 UTC NOAA

Kigali, Rwanda (HRYR) 01-58S 030-07E 1497M
Jul 12, 2020 - 02:30 AM EDT / 2020.07.12 0630 UTC
Wind: Variable at 2 MPH (2 KT):0
Visibility: greater than 7 mile(s):0
Sky conditions: mostly clear
Temperature: 71 F (22 C)
Dew Point: 57 F (14 C)
Relative Humidity: 60%
Pressure (altimeter): 30.21 in. Hg (1023 hPa)
ob: HRYR 120630Z VRB02KT 9999 FEW026 22/14 Q1023 NOSIG
cycle: 6

Station Type Date Time Source
HRYR TAF 2020/07/12 06:57 UTC NOAA

TAF HRYR 120500Z 1206/1312 00000KT 9999 FEW026 SCT100 FM 120800 18006KT BKN025
TEMPO 1212/1216 12010KT SCT025
BECMG 1218/1221 19004KT SCT026 SCT100
BECMG 1302/1305 00000KT FM 130800 16006KT SCT025

Example: see airport list